Time;durP1;ratioP1;P1;durP2;ratioP2;P2;SDS_P1;SDS_P2;PMS_P1;PMS_P2;Temp;Humidity;BMP_temperature;BMP_pressure;BME280_temperature;BME280_humidity;BME280_pressure;Samples;Min_cycle;Max_cycle;Signal;HPM_P1;HPM_P2
2022/09/02 00:01:23;;;;;;;2.42;0.63;;;18.10;72.40;;;;;;4992972;28;20121;-73
2022/09/02 00:03:50;;;;;;;4.32;0.52;;;18.10;72.70;;;;;;4992425;28;20344;-74
2022/09/02 00:06:29;;;;;;;0.60;0.40;;;18.00;72.80;;;;;;4996337;28;20153;-73
2022/09/02 00:08:54;;;;;;;0.73;0.57;;;18.00;73.20;;;;;;4997468;28;20508;-73
2022/09/02 00:11:28;;;;;;;3.33;0.50;;;18.00;73.40;;;;;;4996108;28;20046;-73
2022/09/02 00:13:55;;;;;;;2.88;0.80;;;18.00;73.80;;;;;;4995427;28;20037;-72
2022/09/02 00:16:38;;;;;;;0.43;0.40;;;18.00;73.40;;;;;;4993055;28;20045;-73
2022/09/02 00:19:04;;;;;;;3.40;0.55;;;18.00;73.70;;;;;;4997735;28;20031;-74
2022/09/02 00:21:33;;;;;;;1.75;0.35;;;18.00;73.40;;;;;;4997704;28;20177;-73
2022/09/02 00:24:00;;;;;;;2.95;0.70;;;18.00;74.20;;;;;;4996657;28;20484;-73
2022/09/02 00:26:26;;;;;;;3.80;0.68;;;17.90;74.80;;;;;;4995192;28;20057;-73
2022/09/02 00:28:52;;;;;;;0.55;0.40;;;17.80;75.60;;;;;;4994234;28;20035;-72
2022/09/02 00:31:36;;;;;;;3.90;0.60;;;17.70;75.80;;;;;;4992703;28;20492;-72
2022/09/02 00:34:03;;;;;;;4.28;0.40;;;17.80;75.80;;;;;;4990957;28;20108;-73
2022/09/02 00:36:29;;;;;;;0.73;0.50;;;17.80;76.20;;;;;;4992116;28;20038;-72
2022/09/02 00:38:55;;;;;;;0.93;0.52;;;17.80;76.20;;;;;;4990644;28;20377;-73
2022/09/02 00:41:24;;;;;;;1.20;0.40;;;17.80;75.70;;;;;;4990733;28;20105;-71
2022/09/02 00:43:57;;;;;;;1.42;0.50;;;17.80;76.10;;;;;;4992124;28;20030;-72
2022/09/02 00:46:24;;;;;;;10.60;0.82;;;17.70;76.50;;;;;;4990918;28;20093;-73
2022/09/02 00:49:27;;;;;;;1.45;0.60;;;17.70;76.40;;;;;;4992565;28;20035;-74
2022/09/02 00:51:59;;;;;;;1.30;0.60;;;17.70;76.70;;;;;;5001727;28;20360;-74
2022/09/02 00:54:29;;;;;;;0.82;0.40;;;17.60;77.10;;;;;;5000024;28;20026;-73
2022/09/02 00:56:56;;;;;;;1.70;0.70;;;17.50;77.30;;;;;;5001909;28;20058;-73
2022/09/02 00:59:45;;;;;;;0.75;0.40;;;17.50;77.60;;;;;;4995552;28;20341;-73
2022/09/02 01:02:12;;;;;;;1.05;0.70;;;17.50;77.60;;;;;;4996456;28;20035;-73
2022/09/02 01:04:38;;;;;;;0.95;0.50;;;17.50;78.30;;;;;;5003367;28;20104;-73
2022/09/02 01:07:05;;;;;;;3.80;0.70;;;17.50;77.90;;;;;;5002101;28;20030;-73
2022/09/02 01:09:32;;;;;;;2.58;0.60;;;17.40;78.50;;;;;;5000342;28;20048;-73
2022/09/02 01:12:01;;;;;;;0.60;0.50;;;17.40;79.50;;;;;;4998500;28;20152;-75
2022/09/02 01:14:28;;;;;;;1.67;0.90;;;17.40;80.00;;;;;;4999627;28;20509;-74
2022/09/02 01:16:58;;;;;;;1.67;0.70;;;17.40;79.50;;;;;;5000779;28;20072;-74
2022/09/02 01:19:34;;;;;;;1.85;0.60;;;17.30;80.30;;;;;;4993034;28;20432;-73
2022/09/02 01:22:00;;;;;;;0.52;0.47;;;17.30;79.90;;;;;;4992200;28;20439;-74
2022/09/02 01:24:30;;;;;;;0.90;0.50;;;17.30;80.40;;;;;;4991832;28;20038;-73
2022/09/02 01:26:57;;;;;;;1.45;0.70;;;17.30;80.60;;;;;;4991688;28;20038;-73
2022/09/02 01:29:24;;;;;;;1.60;0.63;;;17.30;80.90;;;;;;4991695;28;20041;-74
2022/09/02 01:31:51;;;;;;;1.05;0.63;;;17.10;81.60;;;;;;4995565;28;20049;-73
2022/09/02 01:34:17;;;;;;;0.60;0.50;;;17.20;81.40;;;;;;4996437;28;20050;-72
2022/09/02 01:36:43;;;;;;;1.15;0.40;;;17.30;81.10;;;;;;4997183;28;20034;-75
2022/09/02 01:39:10;;;;;;;2.63;0.60;;;17.20;81.40;;;;;;4997132;28;20033;-73
2022/09/02 01:41:36;;;;;;;2.83;0.93;;;17.10;82.10;;;;;;4993182;28;20042;-72
2022/09/02 01:44:04;;;;;;;0.65;0.60;;;17.10;82.20;;;;;;4994292;28;20074;-71
2022/09/02 01:46:39;;;;;;;2.13;0.63;;;17.10;82.30;;;;;;4992323;28;20109;-73
2022/09/02 01:49:05;;;;;;;1.95;0.65;;;17.10;82.80;;;;;;4990218;28;20061;-73
2022/09/02 01:51:31;;;;;;;1.80;0.60;;;17.10;82.80;;;;;;4991168;28;20034;-73
2022/09/02 01:53:57;;;;;;;1.98;0.60;;;17.00;83.50;;;;;;4989822;28;20385;-73
2022/09/02 01:56:34;;;;;;;4.30;0.85;;;16.90;83.70;;;;;;4991302;28;20054;-72
2022/09/02 01:59:01;;;;;;;;;;;16.90;84.10;;;;;;4991994;28;20022;-74
2022/09/02 02:01:27;;;;;;;1.90;0.70;;;16.90;84.40;;;;;;4991211;28;19949;-73
2022/09/02 02:03:52;;;;;;;0.98;0.60;;;16.90;84.30;;;;;;4991128;28;20117;-74
2022/09/02 02:06:20;;;;;;;4.60;0.47;;;16.70;85.00;;;;;;4993290;28;20035;-74
2022/09/02 02:08:46;;;;;;;1.25;0.47;;;16.70;85.50;;;;;;4994676;28;20031;-73
2022/09/02 02:11:24;;;;;;;2.35;0.60;;;16.70;85.40;;;;;;4995014;28;20058;-72
2022/09/02 02:13:50;;;;;;;0.80;0.47;;;16.80;85.20;;;;;;4994582;28;20054;-73
2022/09/02 02:16:26;;;;;;;1.42;0.45;;;16.80;85.60;;;;;;4994482;28;20033;-73
2022/09/02 02:18:52;;;;;;;1.42;0.68;;;16.70;86.00;;;;;;4994747;28;20045;-74
2022/09/02 02:21:18;;;;;;;1.88;0.77;;;16.60;86.20;;;;;;4994409;28;20345;-72
2022/09/02 02:23:44;;;;;;;1.85;0.43;;;16.60;86.20;;;;;;4994085;28;20414;-74
2022/09/02 02:26:19;;;;;;;4.53;0.80;;;16.60;86.50;;;;;;4993971;28;20802;-72
2022/09/02 02:28:45;;;;;;;2.13;0.55;;;16.60;87.20;;;;;;4994406;28;20046;-74
2022/09/02 02:31:26;;;;;;;2.58;0.60;;;16.50;87.40;;;;;;4994231;28;20042;-74
2022/09/02 02:33:52;;;;;;;2.47;0.85;;;16.50;87.70;;;;;;4994241;28;20026;-73
2022/09/02 02:36:21;;;;;;;0.82;0.60;;;16.40;87.60;;;;;;4994073;28;20037;-74
2022/09/02 02:38:47;;;;;;;1.92;0.43;;;16.40;87.90;;;;;;4993803;28;20037;-74
2022/09/02 02:41:31;;;;;;;1.08;0.60;;;16.40;87.90;;;;;;4993265;28;20022;-73
2022/09/02 02:43:57;;;;;;;1.73;0.70;;;16.30;88.60;;;;;;4995416;28;20140;-74
2022/09/02 02:46:26;;;;;;;4.60;0.50;;;16.30;88.20;;;;;;4998166;28;20038;-73
2022/09/02 02:48:51;;;;;;;5.88;0.60;;;16.30;88.60;;;;;;4994880;28;20035;-73
2022/09/02 02:51:26;;;;;;;2.35;0.70;;;16.40;88.60;;;;;;4994286;28;20041;-73
2022/09/02 02:53:52;;;;;;;3.80;0.80;;;16.40;88.90;;;;;;4994140;28;20061;-73
2022/09/02 02:56:17;;;;;;;1.15;0.40;;;16.40;88.50;;;;;;4994328;28;20469;-73
2022/09/02 02:58:43;;;;;;;1.10;0.35;;;16.50;88.10;;;;;;4994004;28;20383;-73
2022/09/02 03:01:22;;;;;;;0.95;0.40;;;16.40;88.20;;;;;;4993862;28;20503;-73
2022/09/02 03:03:48;;;;;;;1.08;0.50;;;16.40;88.50;;;;;;4993601;28;20115;-73
2022/09/02 03:06:29;;;;;;;1.77;0.70;;;16.40;88.30;;;;;;4993584;28;20076;-73
2022/09/02 03:08:56;;;;;;;1.23;0.88;;;16.40;88.90;;;;;;4993344;28;20057;-74
2022/09/02 03:11:23;;;;;;;1.40;0.50;;;16.30;89.00;;;;;;4992866;28;20057;-72
2022/09/02 03:13:49;;;;;;;1.13;0.68;;;16.30;89.00;;;;;;4993887;28;20105;-73
2022/09/02 03:16:17;;;;;;;0.75;0.63;;;16.30;89.50;;;;;;4993296;28;20030;-73
2022/09/02 03:18:42;;;;;;;2.25;0.82;;;16.30;88.80;;;;;;4991826;28;20100;-71
2022/09/02 03:21:20;;;;;;;0.88;0.50;;;16.30;89.40;;;;;;4993274;28;20026;-73
2022/09/02 03:23:47;;;;;;;;;;;16.20;89.70;;;;;;4993592;28;20058;-74
2022/09/02 03:26:20;;;;;;;3.88;0.60;;;16.30;89.80;;;;;;4994050;28;19917;-73
2022/09/02 03:28:48;;;;;;;3.90;0.68;;;16.30;89.90;;;;;;4993398;28;20480;-73
2022/09/02 03:31:20;;;;;;;2.00;0.63;;;16.30;89.90;;;;;;4991958;28;20085;-74
2022/09/02 03:33:46;;;;;;;1.83;0.88;;;16.30;90.00;;;;;;4993034;28;20026;-73
2022/09/02 03:36:25;;;;;;;1.35;0.80;;;16.20;90.30;;;;;;4991828;28;20031;-73
2022/09/02 03:38:52;;;;;;;2.25;0.73;;;16.20;90.30;;;;;;4992822;28;20065;-74
2022/09/02 03:41:22;;;;;;;2.10;0.77;;;16.20;90.30;;;;;;4993209;28;20026;-72
2022/09/02 03:43:48;;;;;;;1.30;0.60;;;16.20;90.30;;;;;;4992765;28;20376;-72
2022/09/02 03:46:14;;;;;;;1.05;0.55;;;16.20;90.30;;;;;;4992806;28;20467;-74
2022/09/02 03:48:40;;;;;;;1.45;0.80;;;16.20;90.40;;;;;;4992735;28;20372;-73
2022/09/02 03:51:06;;;;;;;0.70;0.57;;;16.10;90.40;;;;;;4992636;28;20034;-74
2022/09/02 03:53:32;;;;;;;0.95;0.50;;;16.10;90.40;;;;;;4991296;28;20252;-74
2022/09/02 03:56:18;;;;;;;1.75;0.63;;;16.00;90.50;;;;;;4993232;28;20022;-73
2022/09/02 03:58:46;;;;;;;2.63;0.95;;;16.00;90.70;;;;;;4992616;28;20073;-71
2022/09/02 04:01:22;;;;;;;1.92;0.80;;;16.00;90.70;;;;;;4992832;28;20041;-73
2022/09/02 04:03:48;;;;;;;1.90;1.00;;;16.00;90.70;;;;;;4991265;28;20045;-73
2022/09/02 04:06:19;;;;;;;3.45;1.40;;;15.90;91.00;;;;;;4992619;28;20026;-72
2022/09/02 04:08:46;;;;;;;5.15;0.73;;;15.90;91.00;;;;;;4992320;28;20045;-73
2022/09/02 04:11:18;;;;;;;2.42;0.82;;;15.70;91.50;;;;;;4992511;28;20041;-72
2022/09/02 04:13:46;;;;;;;3.33;1.10;;;15.60;91.60;;;;;;4992421;28;20042;-74
2022/09/02 04:16:27;;;;;;;2.90;1.00;;;15.70;91.60;;;;;;4992372;28;20026;-73
2022/09/02 04:18:57;;;;;;;6.63;1.63;;;15.70;91.40;;;;;;4992186;28;20076;-73
2022/09/02 04:21:24;;;;;;;4.40;0.95;;;15.60;91.60;;;;;;4992252;28;20026;-73
2022/09/02 04:23:51;;;;;;;1.58;0.80;;;15.60;92.00;;;;;;4991950;28;20046;-74
2022/09/02 04:26:21;;;;;;;4.28;1.30;;;15.70;91.70;;;;;;4991259;28;20105;-73
2022/09/02 04:28:52;;;;;;;3.50;0.82;;;15.70;91.80;;;;;;4991516;28;20142;-73
2022/09/02 04:31:25;;;;;;;2.70;0.80;;;15.60;91.80;;;;;;4990894;28;20121;-74
2022/09/02 04:33:55;;;;;;;3.35;0.65;;;15.50;92.00;;;;;;4992037;28;20121;-73
2022/09/02 04:36:21;;;;;;;7.35;1.55;;;15.30;92.40;;;;;;4991726;28;20038;-73
2022/09/02 04:38:47;;;;;;;3.42;0.93;;;15.40;92.20;;;;;;4991827;28;20050;-73
2022/09/02 04:41:27;;;;;;;3.63;0.85;;;15.40;92.40;;;;;;4992626;28;20373;-73
2022/09/02 04:43:55;;;;;;;6.90;1.20;;;15.40;92.40;;;;;;4990725;28;20085;-72
2022/09/02 04:46:24;;;;;;;2.78;1.48;;;15.30;92.60;;;;;;4991838;28;20026;-72
2022/09/02 04:48:50;;;;;;;5.93;1.50;;;15.30;92.50;;;;;;4991638;28;20499;-73
2022/09/02 04:51:34;;;;;;;5.65;1.00;;;15.30;92.20;;;;;;4991481;28;20117;-73
2022/09/02 04:54:00;;;;;;;4.72;1.13;;;15.30;92.50;;;;;;4991474;28;20104;-74
2022/09/02 04:56:28;;;;;;;20.60;2.17;;;15.20;92.60;;;;;;4991759;28;20058;-74
2022/09/02 04:58:54;;;;;;;7.47;1.50;;;15.20;92.50;;;;;;4992006;28;20453;-73
2022/09/02 05:01:24;;;;;;;5.28;1.08;;;15.30;92.60;;;;;;4991642;28;20042;-74
2022/09/02 05:03:50;;;;;;;3.83;1.40;;;15.20;92.80;;;;;;4991687;28;20114;-73
2022/09/02 05:06:22;;;;;;;5.35;1.30;;;15.20;92.60;;;;;;4991358;28;20118;-74
2022/09/02 05:08:48;;;;;;;18.23;2.50;;;15.20;92.80;;;;;;4991338;28;20057;-74
2022/09/02 05:11:18;;;;;;;8.13;1.40;;;15.30;92.80;;;;;;4991610;28;20073;-73
2022/09/02 05:13:53;;;;;;;8.45;1.60;;;15.30;93.10;;;;;;4991485;28;20168;-73
2022/09/02 05:16:21;;;;;;;1.77;0.85;;;15.20;93.00;;;;;;4991327;28;20114;-72
2022/09/02 05:18:50;;;;;;;5.75;0.90;;;15.30;93.00;;;;;;4991123;28;20038;-73
2022/09/02 05:21:30;;;;;;;4.70;1.05;;;15.30;93.00;;;;;;4991356;28;20046;-73
2022/09/02 05:23:56;;;;;;;2.45;0.70;;;15.30;92.80;;;;;;4991213;28;20038;-73
2022/09/02 05:26:22;;;;;;;1.65;0.80;;;15.30;93.00;;;;;;4991047;28;20038;-73
2022/09/02 05:28:48;;;;;;;7.30;1.30;;;15.40;93.00;;;;;;4990616;28;20018;-71
2022/09/02 05:31:23;;;;;;;4.05;1.13;;;15.40;92.60;;;;;;4991359;28;20085;-74
2022/09/02 05:33:48;;;;;;;5.20;0.95;;;15.40;93.10;;;;;;4991184;28;20333;-73
2022/09/02 05:36:27;;;;;;;3.50;0.75;;;15.40;92.90;;;;;;4990943;28;20022;-73
2022/09/02 05:38:53;;;;;;;1.83;1.00;;;15.50;92.90;;;;;;4991276;28;20038;-74
2022/09/02 05:41:22;;;;;;;4.65;1.02;;;15.50;93.30;;;;;;4993348;28;20118;-73
2022/09/02 05:43:49;;;;;;;3.17;1.40;;;15.40;93.00;;;;;;4995600;28;20545;-74
2022/09/02 05:46:22;;;;;;;6.65;1.10;;;15.50;92.90;;;;;;4993925;28;20038;-74
2022/09/02 05:49:16;;;;;;;1.83;1.00;;;15.50;92.90;;;;;;4993759;28;20300;-76
2022/09/02 05:51:43;;;;;;;4.80;1.30;;;15.60;93.00;;;;;;4993714;28;20429;-73
2022/09/02 05:54:15;;;;;;;3.55;1.55;;;15.60;92.90;;;;;;4994747;28;20038;-73
2022/09/02 05:56:42;;;;;;;6.78;1.20;;;15.60;93.10;;;;;;4994574;28;20125;-77
2022/09/02 05:59:09;;;;;;;5.77;1.30;;;15.70;92.90;;;;;;4995103;28;20065;-74
2022/09/02 06:01:35;;;;;;;5.28;1.30;;;15.70;92.80;;;;;;4994623;28;20264;-73
2022/09/02 06:04:03;;;;;;;12.52;4.45;;;15.70;92.80;;;;;;4993311;28;20552;-74
2022/09/02 06:06:31;;;;;;;;;;;15.80;92.70;;;;;;4993910;28;20042;-76
2022/09/02 06:08:58;;;;;;;4.80;1.52;;;15.80;93.00;;;;;;4994789;28;19909;-76
2022/09/02 06:11:24;;;;;;;4.05;1.02;;;15.80;92.80;;;;;;4994323;28;20038;-75
2022/09/02 06:13:51;;;;;;;4.18;1.20;;;15.90;92.80;;;;;;4995179;28;20030;-74
2022/09/02 06:16:19;;;;;;;5.43;1.05;;;15.90;92.70;;;;;;4994561;28;20027;-75
2022/09/02 06:18:46;;;;;;;;;;;16.00;92.70;;;;;;4994915;28;20344;-76
2022/09/02 06:21:12;;;;;;;6.70;1.80;;;16.00;92.60;;;;;;4994519;28;19909;-77
2022/09/02 06:23:39;;;;;;;4.82;1.13;;;16.00;92.70;;;;;;4993916;28;20105;-78
2022/09/02 06:26:23;;;;;;;5.85;1.48;;;16.00;92.50;;;;;;4995256;28;20027;-78
2022/09/02 06:28:49;;;;;;;5.97;1.10;;;16.10;92.50;;;;;;5010262;28;20041;-75
2022/09/02 06:31:20;;;;;;;2.22;1.08;;;16.10;92.40;;;;;;4994405;28;20204;-76
2022/09/02 06:33:47;;;;;;;2.13;1.05;;;16.20;92.50;;;;;;4994768;28;20130;-78
2022/09/02 06:36:20;;;;;;;3.92;1.10;;;16.20;92.50;;;;;;4994718;28;20568;-77
2022/09/02 06:38:48;;;;;;;131.40;9.75;;;16.20;92.30;;;;;;4993552;28;20448;-78
2022/09/02 06:41:22;;;;;;;64.30;4.95;;;16.20;92.60;;;;;;4995267;28;20118;-77
2022/09/02 06:43:49;;;;;;;7.53;2.22;;;16.30;92.30;;;;;;4958511;28;20047;-78
2022/09/02 06:46:17;;;;;;;9.48;2.35;;;16.40;92.20;;;;;;4955783;28;20456;-80
2022/09/02 06:48:43;;;;;;;11.07;1.73;;;16.40;92.10;;;;;;4955258;28;20126;-79
2022/09/02 06:54:31;;;;;;;3.78;1.35;;;16.50;92.20;;;;;;4972121;28;20174;-82
2022/09/02 06:56:57;;;;;;;5.68;1.75;;;16.60;91.90;;;;;;4973534;28;20461;-80
2022/09/02 06:59:23;;;;;;;12.10;1.70;;;16.60;92.10;;;;;;4973468;28;20070;-75
2022/09/02 07:01:52;;;;;;;3.80;1.75;;;16.60;92.10;;;;;;4973865;28;20034;-79
2022/09/02 07:07:05;;;;;;;4.93;1.92;;;16.70;92.00;;;;;;4974218;28;20097;-81
2022/09/02 07:09:32;;;;;;;3.30;1.92;;;16.70;92.20;;;;;;4974132;28;20126;-79
2022/09/02 07:11:59;;;;;;;8.85;2.38;;;16.70;92.10;;;;;;4972791;28;20035;-79
2022/09/02 07:14:27;;;;;;;5.80;1.73;;;16.80;92.20;;;;;;4974163;28;20046;-75
2022/09/02 07:16:54;;;;;;;12.35;2.28;;;16.80;92.20;;;;;;4974396;28;20034;-79
2022/09/02 07:19:20;;;;;;;2.90;1.20;;;16.80;92.30;;;;;;4974110;28;20117;-76
2022/09/02 07:21:48;;;;;;;8.90;1.63;;;16.90;92.20;;;;;;4974290;28;20031;-78
2022/09/02 07:24:14;;;;;;;9.65;1.63;;;16.90;91.90;;;;;;4972831;28;20085;-79
2022/09/02 07:26:41;;;;;;;7.22;1.50;;;17.00;92.00;;;;;;4972711;28;20598;-81
2022/09/02 07:29:07;;;;;;;3.17;1.58;;;17.10;92.00;;;;;;4973561;28;20031;-76
2022/09/02 07:31:38;;;;;;;13.82;1.70;;;17.10;91.80;;;;;;4988794;28;20181;-74
2022/09/02 07:34:06;;;;;;;3.78;1.30;;;17.20;91.90;;;;;;4973741;28;20081;-75
2022/09/02 07:36:33;;;;;;;5.40;1.33;;;17.20;91.80;;;;;;4973383;28;20038;-74
2022/09/02 07:38:59;;;;;;;7.13;1.85;;;17.30;91.70;;;;;;4973664;28;20114;-75
2022/09/02 07:41:25;;;;;;;7.60;1.60;;;17.30;91.60;;;;;;4973607;28;20665;-80
2022/09/02 07:43:52;;;;;;;4.93;1.25;;;17.40;91.50;;;;;;4974524;28;20335;-81
2022/09/02 07:46:18;;;;;;;10.27;2.00;;;17.40;91.50;;;;;;4973536;28;20250;-79
2022/09/02 07:48:43;;;;;;;3.40;1.40;;;17.50;91.80;;;;;;4972426;28;20034;-80
2022/09/02 07:51:10;;;;;;;4.07;1.67;;;17.60;91.60;;;;;;4973650;28;20457;-79
2022/09/02 07:53:36;;;;;;;3.70;1.27;;;17.60;91.40;;;;;;4972680;28;20031;-82
2022/09/02 07:56:05;;;;;;;3.40;1.25;;;17.60;91.30;;;;;;4973756;28;20019;-80
2022/09/02 07:58:31;;;;;;;9.13;2.10;;;17.70;91.20;;;;;;4973278;28;20041;-78
2022/09/02 08:00:56;;;;;;;4.80;1.27;;;17.70;91.20;;;;;;4973480;28;20023;-80
2022/09/02 08:03:24;;;;;;;6.45;1.30;;;17.80;91.30;;;;;;4973027;28;20424;-78
2022/09/02 08:05:50;;;;;;;4.70;1.20;;;17.90;90.90;;;;;;4973589;28;20338;-76
2022/09/02 08:08:20;;;;;;;5.07;1.20;;;18.00;90.90;;;;;;4972400;28;20042;-75
2022/09/02 08:10:50;;;;;;;2.50;1.35;;;18.10;90.80;;;;;;4972833;28;20358;-76
2022/09/02 08:13:17;;;;;;;2.53;1.23;;;18.30;90.60;;;;;;4972609;28;20334;-74
2022/09/02 08:15:43;;;;;;;9.30;1.48;;;18.50;90.40;;;;;;4972922;28;20034;-80
2022/09/02 08:18:09;;;;;;;5.13;1.67;;;18.70;90.20;;;;;;4972946;28;20035;-80
2022/09/02 08:20:35;;;;;;;6.45;1.40;;;18.90;89.90;;;;;;4972918;28;20099;-79
2022/09/02 08:23:04;;;;;;;3.35;0.90;;;19.10;89.30;;;;;;4973774;28;20124;-80
2022/09/02 08:25:30;;;;;;;6.80;1.30;;;19.40;89.40;;;;;;4971780;28;20158;-80
2022/09/02 08:27:56;;;;;;;2.28;1.00;;;19.90;88.50;;;;;;4973393;28;20378;-81
2022/09/02 08:30:22;;;;;;;3.22;1.20;;;20.50;87.10;;;;;;4973225;28;20365;-79
2022/09/02 08:32:47;;;;;;;5.60;2.15;;;21.30;85.10;;;;;;4973216;28;20026;-78
2022/09/02 08:35:13;;;;;;;7.00;2.55;;;22.30;84.80;;;;;;4972746;28;20153;-75
2022/09/02 08:37:39;;;;;;;3.80;1.75;;;23.70;82.90;;;;;;4972647;28;20029;-79
2022/09/02 08:40:11;;;;;;;7.88;1.67;;;25.20;77.30;;;;;;4972986;28;20030;-79
2022/09/02 08:42:49;;;;;;;8.55;1.55;;;25.80;70.00;;;;;;4973136;28;20104;-79
2022/09/02 08:45:36;;;;;;;7.05;1.55;;;26.90;68.80;;;;;;4973008;28;20027;-81
2022/09/02 08:48:19;;;;;;;2.80;1.05;;;28.30;64.80;;;;;;4971843;28;20168;-83
2022/09/02 08:50:47;;;;;;;6.00;1.38;;;29.10;62.00;;;;;;4987910;28;20031;-79
2022/09/02 08:53:22;;;;;;;7.28;1.80;;;29.80;56.70;;;;;;4974183;28;20053;-78
2022/09/02 08:55:54;;;;;;;4.88;1.88;;;29.90;55.90;;;;;;4973042;28;20366;-75
2022/09/02 08:58:23;;;;;;;1.90;1.13;;;30.60;55.90;;;;;;4972765;28;20049;-77
2022/09/02 09:01:05;;;;;;;4.30;0.95;;;31.20;53.60;;;;;;4972457;28;20027;-76
2022/09/02 09:03:48;;;;;;;4.97;1.20;;;31.40;51.60;;;;;;4972232;28;20101;-77
2022/09/02 09:06:21;;;;;;;4.38;1.20;;;32.10;51.50;;;;;;4972597;28;20046;-80
2022/09/02 09:08:46;;;;;;;5.75;1.70;;;32.80;49.70;;;;;;4972379;28;20074;-78
2022/09/02 09:11:28;;;;;;;9.30;1.40;;;33.70;47.50;;;;;;4987944;28;20078;-80
2022/09/02 09:14:17;;;;;;;1.77;1.02;;;33.60;47.60;;;;;;4972612;28;20330;-76
2022/09/02 09:17:15;;;;;;;2.60;1.13;;;33.90;46.70;;;;;;4972003;28;20351;-76
2022/09/02 09:19:53;;;;;;;3.20;1.23;;;34.30;45.60;;;;;;4952633;29;20094;-80
2022/09/02 09:22:32;;;;;;;3.85;1.10;;;35.20;43.10;;;;;;4969551;28;20077;-82
2022/09/02 09:24:58;;;;;;;4.57;1.20;;;35.50;43.10;;;;;;4972496;28;20470;-80
2022/09/02 09:27:24;;;;;;;3.03;1.35;;;34.70;41.50;;;;;;4972783;28;20046;-80
2022/09/02 09:29:51;;;;;;;3.38;1.20;;;34.30;40.40;;;;;;4971672;28;20049;-81
2022/09/02 09:32:25;;;;;;;3.60;0.75;;;35.00;41.90;;;;;;4973096;28;20026;-79
2022/09/02 09:34:56;;;;;;;9.82;1.20;;;34.40;41.60;;;;;;4972593;28;20390;-80
2022/09/02 09:37:46;;;;;;;5.55;1.25;;;35.20;41.50;;;;;;4971440;28;20126;-81
2022/09/02 09:40:24;;;;;;;5.35;1.90;;;36.10;40.40;;;;;;4971111;28;20112;-82
2022/09/02 09:43:04;;;;;;;5.35;1.42;;;36.60;39.00;;;;;;4972073;28;20042;-79
2022/09/02 09:45:31;;;;;;;5.43;1.10;;;36.90;37.10;;;;;;4972393;28;20031;-78
2022/09/02 09:48:28;;;;;;;8.60;1.52;;;37.30;37.60;;;;;;4966978;28;20059;-84
2022/09/02 09:50:54;;;;;;;6.00;1.20;;;37.20;36.10;;;;;;4953191;28;20062;-81
2022/09/02 09:53:26;;;;;;;3.47;0.90;;;37.00;35.60;;;;;;4967843;28;20463;-79
2022/09/02 09:56:26;;;;;;;8.40;1.10;;;37.20;35.40;;;;;;4953384;28;20520;-82
2022/09/02 09:58:52;;;;;;;4.43;0.93;;;37.50;35.00;;;;;;4951524;29;20035;-81
2022/09/02 10:01:20;;;;;;;5.97;0.88;;;37.10;34.80;;;;;;4968385;28;20032;-84
2022/09/02 10:04:09;;;;;;;4.85;2.17;;;37.80;35.20;;;;;;4968324;28;20058;-79
2022/09/02 10:06:35;;;;;;;9.77;4.63;;;38.00;34.00;;;;;;4951863;28;20031;-80
2022/09/02 10:09:22;;;;;;;5.55;1.05;;;37.80;32.80;;;;;;4968559;28;20043;-86
2022/09/02 10:11:59;;;;;;;;;;;38.10;32.90;;;;;;4952876;28;20040;-78
2022/09/02 10:14:45;;;;;;;4.18;1.02;;;38.30;32.50;;;;;;4952206;28;20380;-82
2022/09/02 10:17:54;;;;;;;3.13;0.88;;;38.20;32.10;;;;;;4953158;28;20059;-79
2022/09/02 10:20:49;;;;;;;5.68;1.10;;;37.60;32.50;;;;;;4956937;28;20071;-82
2022/09/02 10:23:27;;;;;;;5.15;0.90;;;37.40;32.70;;;;;;4953200;28;20027;-77
2022/09/02 10:26:05;;;;;;;5.18;0.95;;;37.00;31.70;;;;;;4952551;28;20032;-80
2022/09/02 10:29:10;;;;;;;4.25;1.20;;;36.80;33.80;;;;;;4955462;28;20062;-79
2022/09/02 10:31:57;;;;;;;4.38;0.85;;;37.30;32.60;;;;;;4958665;28;20365;-85
2022/09/02 10:34:44;;;;;;;15.82;3.13;;;36.60;32.50;;;;;;4976400;28;20454;-83
2022/09/02 10:37:20;;;;;;;2.42;0.90;;;36.00;33.40;;;;;;4956680;28;20046;-76
2022/09/02 10:40:02;;;;;;;3.90;1.08;;;36.80;32.30;;;;;;4955561;28;20031;-77
2022/09/02 10:42:55;;;;;;;3.50;0.90;;;35.90;33.40;;;;;;4955570;28;20040;-77
2022/09/02 10:45:30;;;;;;;1.65;0.80;;;36.60;32.10;;;;;;4955463;28;20126;-77
2022/09/02 10:48:18;;;;;;;2.45;0.90;;;35.90;33.10;;;;;;4955578;28;20031;-75
2022/09/02 10:51:11;;;;;;;8.73;1.00;;;35.30;32.90;;;;;;4955311;28;20364;-75
2022/09/02 10:54:02;;;;;;;4.20;1.15;;;36.30;32.60;;;;;;4955434;28;20038;-79
2022/09/02 10:56:49;;;;;;;3.47;0.80;;;36.60;31.40;;;;;;4955249;28;20415;-78
2022/09/02 10:59:30;;;;;;;1.45;1.27;;;36.50;30.80;;;;;;4955481;28;20374;-76
2022/09/02 11:02:12;;;;;;;3.03;1.42;;;34.90;31.10;;;;;;4955159;28;20496;-78
2022/09/02 11:04:55;;;;;;;9.27;0.90;;;33.70;32.70;;;;;;4955341;28;20402;-78
2022/09/02 11:07:35;;;;;;;2.25;1.48;;;34.20;32.90;;;;;;4955717;28;20123;-83
2022/09/02 11:10:24;;;;;;;6.63;2.35;;;34.20;32.60;;;;;;4956006;28;20126;-79
2022/09/02 11:13:19;;;;;;;5.13;1.85;;;33.40;32.80;;;;;;4955853;28;20044;-84
2022/09/02 11:15:47;;;;;;;13.30;7.00;;;33.30;33.70;;;;;;4955034;28;20130;-75
2022/09/02 11:18:51;;;;;;;5.85;1.70;;;32.80;33.80;;;;;;4970177;28;20028;-79
2022/09/02 11:21:44;;;;;;;4.57;0.95;;;32.60;34.20;;;;;;4964476;28;20327;-78
2022/09/02 11:24:13;;;;;;;4.13;0.80;;;31.90;34.70;;;;;;4956033;28;20039;-79
2022/09/02 11:27:07;;;;;;;1.23;0.85;;;31.40;35.10;;;;;;4956437;28;20386;-81
2022/09/02 11:29:35;;;;;;;4.55;0.98;;;31.10;36.00;;;;;;4972090;28;20106;-81
2022/09/02 11:32:24;;;;;;;4.40;2.60;;;30.40;36.70;;;;;;4958635;28;20043;-83
2022/09/02 11:34:55;;;;;;;1.83;1.05;;;30.10;37.20;;;;;;4957732;28;20055;-80
2022/09/02 11:37:45;;;;;;;4.78;2.58;;;30.10;37.50;;;;;;4955664;28;20031;-81
2022/09/02 11:40:18;;;;;;;1.80;1.17;;;30.00;36.80;;;;;;4956182;28;20031;-85
2022/09/02 11:42:52;;;;;;;2.30;0.90;;;29.80;37.10;;;;;;4971321;28;20083;-84
2022/09/02 11:45:40;;;;;;;1.90;0.75;;;29.60;37.20;;;;;;4956342;28;20039;-76
2022/09/02 11:48:43;;;;;;;2.05;0.80;;;29.50;37.80;;;;;;4968849;28;20042;-76
2022/09/02 11:51:27;;;;;;;5.57;0.75;;;29.30;37.90;;;;;;4969305;28;20047;-79
2022/09/02 11:53:55;;;;;;;14.50;2.08;;;28.80;38.40;;;;;;4955472;28;20046;-80
2022/09/02 11:56:27;;;;;;;;;;;28.80;38.70;;;;;;4956990;28;20059;-79
2022/09/02 11:58:54;;;;;;;5.20;2.00;;;28.80;38.30;;;;;;4954748;29;19907;-78
2022/09/02 12:01:28;;;;;;;3.22;0.88;;;28.70;38.30;;;;;;4969513;28;20042;-81
2022/09/02 12:04:03;;;;;;;3.88;1.20;;;28.30;39.00;;;;;;4954425;28;20031;-79
2022/09/02 12:06:29;;;;;;;2.83;1.00;;;28.40;39.20;;;;;;4969284;28;20186;-81
2022/09/02 12:08:58;;;;;;;2.22;1.13;;;28.40;38.90;;;;;;4969157;28;20027;-76
2022/09/02 12:11:44;;;;;;;3.55;1.20;;;28.30;38.10;;;;;;4954492;28;20043;-79
2022/09/02 12:14:25;;;;;;;2.72;0.73;;;28.20;38.60;;;;;;4971586;28;20030;-81
2022/09/02 12:17:05;;;;;;;2.92;0.70;;;28.30;39.00;;;;;;4954582;28;20047;-82
2022/09/02 12:19:44;;;;;;;2.17;0.80;;;28.20;38.90;;;;;;4969452;28;20035;-79
2022/09/02 12:22:16;;;;;;;4.00;0.80;;;28.20;39.10;;;;;;4954256;28;20043;-76
2022/09/02 12:24:55;;;;;;;2.70;1.00;;;28.10;39.00;;;;;;4969215;28;20020;-78
2022/09/02 12:27:41;;;;;;;2.25;0.50;;;28.00;38.60;;;;;;4969139;28;20430;-77
2022/09/02 12:30:11;;;;;;;4.25;0.95;;;27.90;39.00;;;;;;4953862;28;20106;-80
2022/09/02 12:32:47;;;;;;;6.32;1.88;;;27.70;39.50;;;;;;4969860;28;20205;-81
2022/09/02 12:35:38;;;;;;;4.03;1.00;;;27.50;40.10;;;;;;4970247;28;20035;-77
2022/09/02 12:38:20;;;;;;;1.67;0.68;;;27.60;40.20;;;;;;4975635;28;20098;-86
2022/09/02 12:41:27;;;;;;;2.85;0.77;;;27.30;40.00;;;;;;4970698;28;20035;-83
2022/09/02 12:44:22;;;;;;;2.00;0.90;;;27.20;41.10;;;;;;4964209;28;20058;-83
2022/09/02 12:47:05;;;;;;;9.02;1.77;;;27.30;41.10;;;;;;4969569;28;20097;-76
2022/09/02 12:49:44;;;;;;;3.83;1.45;;;27.20;41.40;;;;;;4953035;28;20130;-75
2022/09/02 12:52:47;;;;;;;3.88;1.17;;;27.30;41.20;;;;;;4953568;28;20107;-78
2022/09/02 12:55:35;;;;;;;4.72;1.00;;;27.30;41.30;;;;;;4970101;28;20520;-78
2022/09/02 12:58:09;;;;;;;4.20;1.50;;;27.10;41.40;;;;;;4954116;28;20047;-80
2022/09/02 13:01:16;;;;;;;4.00;1.55;;;27.00;41.40;;;;;;4967849;28;20114;-78
2022/09/02 13:03:59;;;;;;;5.82;1.33;;;26.90;41.60;;;;;;4953338;28;20039;-83
2022/09/02 13:07:10;;;;;;;2.83;1.50;;;26.60;42.00;;;;;;4953258;28;20142;-82
2022/09/02 13:10:09;;;;;;;3.03;1.27;;;26.50;42.30;;;;;;4959905;28;20481;-84
2022/09/02 13:13:06;;;;;;;12.00;1.75;;;26.60;43.00;;;;;;4968219;28;20373;-83
2022/09/02 13:15:53;;;;;;;9.27;1.98;;;26.70;43.70;;;;;;4968093;28;20027;-81
2022/09/02 13:18:31;;;;;;;;;;;26.60;43.30;;;;;;4953236;28;20036;-76
2022/09/02 13:21:00;;;;;;;;;;;26.50;42.70;;;;;;4953007;28;19957;-76
2022/09/02 13:23:43;;;;;;;3.92;0.98;;;26.10;43.10;;;;;;4953009;28;19911;-80
2022/09/02 13:26:45;;;;;;;2.33;0.98;;;25.90;43.10;;;;;;4953619;28;20073;-80